Time,TemperatureF,DewpointF,PressureIn,WindDirection,WindDirectionDegrees,WindSpeedMPH,WindSpeedGustMPH,Humidity,HourlyPrecipIn,Conditions,Clouds,dailyrainin,SolarRadiationWatts/m^2,SoftwareType,DateUTC
2013-11-26 00:02:00,30.0,26.0,-100.00,NE,48,2.0,7.0,85,-99.99,,,0.00,0.000000,,2013-11-26 08:02:00,
2013-11-26 00:42:00,29.0,25.0,-100.00,NE,55,2.0,8.0,85,-99.99,,,0.00,0.000000,,2013-11-26 08:42:00,
2013-11-26 00:52:00,29.0,25.0,-100.00,NE,55,2.0,8.0,85,-99.99,,,0.00,0.000000,,2013-11-26 08:52:00,
2013-11-26 01:02:00,29.0,25.0,-100.00,NE,55,2.0,8.0,85,-99.99,,,0.00,0.000000,,2013-11-26 09:02:00,
2013-11-26 01:44:00,29.0,25.0,-100.00,NE,50,2.0,8.0,85,-99.99,,,0.00,0.000000,,2013-11-26 09:44:00,
2013-11-26 01:53:00,29.0,25.0,-100.00,NE,50,2.0,8.0,85,-99.99,,,0.00,0.000000,,2013-11-26 09:53:00,
2013-11-26 02:03:00,29.0,25.0,-100.00,NE,50,2.0,8.0,85,-99.99,,,0.00,0.000000,,2013-11-26 10:03:00,
2013-11-26 02:43:00,29.0,25.0,-100.00,ENE,71,2.0,7.0,86,-99.99,,,0.00,0.000000,,2013-11-26 10:43:00,
2013-11-26 02:53:00,29.0,25.0,-100.00,ENE,71,2.0,7.0,86,-99.99,,,0.00,0.000000,,2013-11-26 10:53:00,
2013-11-26 03:02:00,29.0,25.0,-100.00,ENE,71,2.0,7.0,86,-99.99,,,0.00,0.000000,,2013-11-26 11:02:00,
2013-11-26 03:42:00,29.0,25.0,-100.00,SSE,152,2.0,8.0,84,-99.99,,,0.00,0.000000,,2013-11-26 11:42:00,
2013-11-26 03:52:00,29.0,25.0,-100.00,SSE,152,2.0,8.0,84,-99.99,,,0.00,0.000000,,2013-11-26 11:52:00,
2013-11-26 04:02:00,29.0,25.0,-100.00,SSE,152,2.0,8.0,84,-99.99,,,0.00,0.000000,,2013-11-26 12:02:00,
2013-11-26 04:42:00,28.0,24.0,-100.00,SW,233,2.0,8.0,84,0.00,,,0.00,0.000000,,2013-11-26 12:42:00,
2013-11-26 04:52:00,28.0,24.0,-100.00,SW,233,2.0,8.0,84,0.00,,,0.00,0.000000,,2013-11-26 12:52:00,
2013-11-26 05:02:00,28.0,24.0,-100.00,SW,233,2.0,8.0,84,0.00,,,0.00,0.000000,,2013-11-26 13:02:00,
2013-11-26 05:42:00,28.0,23.0,-100.00,NNE,31,2.0,9.0,82,0.00,,,0.00,0.000000,,2013-11-26 13:42:00,
2013-11-26 05:52:00,28.0,23.0,-100.00,NNE,31,2.0,9.0,82,0.00,,,0.00,0.000000,,2013-11-26 13:52:00,
2013-11-26 06:02:00,28.0,23.0,-100.00,NNE,31,2.0,9.0,82,0.00,,,0.00,0.000000,,2013-11-26 14:02:00,
2013-11-26 06:42:00,28.0,23.0,-100.00,SW,229,1.0,6.0,82,0.00,,,0.00,0.000000,,2013-11-26 14:42:00,
2013-11-26 06:52:00,28.0,23.0,-100.00,SW,229,1.0,6.0,82,0.00,,,0.00,0.000000,,2013-11-26 14:52:00,
2013-11-26 07:02:00,28.0,23.0,-100.00,SW,229,1.0,6.0,82,0.00,,,0.00,0.000000,,2013-11-26 15:02:00,
2013-11-26 07:43:00,28.0,23.0,-100.00,ENE,69,2.0,8.0,82,0.00,,,0.00,0.000000,,2013-11-26 15:43:00,
2013-11-26 07:54:00,28.0,23.0,-100.00,ENE,69,2.0,8.0,82,0.00,,,0.00,0.000000,,2013-11-26 15:54:00,
2013-11-26 08:03:00,28.0,23.0,-100.00,ENE,69,2.0,8.0,82,0.00,,,0.00,0.000000,,2013-11-26 16:03:00,
2013-11-26 08:43:00,29.0,24.0,-100.00,ENE,60,2.0,8.0,80,0.00,,,0.00,15.000000,,2013-11-26 16:43:00,
2013-11-26 08:54:00,29.0,24.0,-100.00,ENE,60,2.0,8.0,80,0.00,,,0.00,15.000000,,2013-11-26 16:54:00,
2013-11-26 09:02:00,29.0,24.0,-100.00,ENE,60,2.0,8.0,80,0.00,,,0.00,15.000000,,2013-11-26 17:02:00,
2013-11-26 09:43:00,31.0,24.0,-100.00,NE,51,2.0,8.0,76,0.00,,,0.00,62.000000,,2013-11-26 17:43:00,
2013-11-26 09:52:00,31.0,24.0,-100.00,NE,51,2.0,8.0,76,0.00,,,0.00,62.000000,,2013-11-26 17:52:00,
2013-11-26 10:02:00,31.0,24.0,-100.00,NE,51,2.0,8.0,76,0.00,,,0.00,62.000000,,2013-11-26 18:02:00,
2013-11-26 10:42:00,36.0,26.0,-100.00,SSW,212,1.0,7.0,67,0.00,,,0.00,141.000000,,2013-11-26 18:42:00,
2013-11-26 10:53:00,36.0,26.0,-100.00,SSW,212,1.0,7.0,67,0.00,,,0.00,141.000000,,2013-11-26 18:53:00,
2013-11-26 11:02:00,36.0,26.0,-100.00,SSW,212,1.0,7.0,67,0.00,,,0.00,141.000000,,2013-11-26 19:02:00,
2013-11-26 11:42:00,38.0,26.0,-100.00,North,6,1.0,6.0,61,0.00,,,0.00,148.000000,,2013-11-26 19:42:00,
2013-11-26 11:52:00,38.0,26.0,-100.00,North,6,1.0,6.0,61,0.00,,,0.00,148.000000,,2013-11-26 19:52:00,
2013-11-26 12:02:00,38.0,26.0,-100.00,North,6,1.0,6.0,61,0.00,,,0.00,148.000000,,2013-11-26 20:02:00,
2013-11-26 12:42:00,45.0,28.0,-100.00,East,91,1.0,3.0,51,0.00,,,0.00,186.000000,,2013-11-26 20:42:00,
2013-11-26 12:53:00,45.0,28.0,-100.00,East,91,1.0,3.0,51,0.00,,,0.00,186.000000,,2013-11-26 20:53:00,
2013-11-26 13:02:00,45.0,28.0,-100.00,East,91,1.0,3.0,51,0.00,,,0.00,186.000000,,2013-11-26 21:02:00,
2013-11-26 14:43:00,50.0,23.0,-100.00,North,7,1.0,6.0,35,-99.99,,,0.00,124.000000,,2013-11-26 22:43:00,
2013-11-26 14:53:00,50.0,23.0,-100.00,North,7,1.0,6.0,35,-99.99,,,0.00,124.000000,,2013-11-26 22:53:00,
2013-11-26 15:02:00,50.0,23.0,-100.00,North,7,1.0,6.0,35,-99.99,,,0.00,124.000000,,2013-11-26 23:02:00,
2013-11-26 15:43:00,47.0,25.0,-100.00,North,352,1.0,8.0,41,0.00,,,0.00,81.000000,,2013-11-26 23:43:00,
2013-11-26 15:53:00,47.0,25.0,-100.00,North,352,1.0,8.0,41,0.00,,,0.00,81.000000,,2013-11-26 23:53:00,
2013-11-26 16:02:00,47.0,25.0,-100.00,North,352,1.0,8.0,41,0.00,,,0.00,81.000000,,2013-11-27 00:02:00,
2013-11-26 16:42:00,41.0,29.0,-100.00,West,263,1.0,2.0,63,0.00,,,0.00,45.000000,,2013-11-27 00:42:00,
2013-11-26 16:52:00,41.0,29.0,-100.00,West,263,1.0,2.0,63,0.00,,,0.00,45.000000,,2013-11-27 00:52:00,
2013-11-26 17:02:00,41.0,29.0,-100.00,West,263,1.0,2.0,63,0.00,,,0.00,45.000000,,2013-11-27 01:02:00,
2013-11-26 17:42:00,36.0,28.0,-100.00,ESE,119,1.0,4.0,73,0.00,,,0.00,4.000000,,2013-11-27 01:42:00,
2013-11-26 17:52:00,36.0,28.0,-100.00,ESE,119,1.0,4.0,73,0.00,,,0.00,4.000000,,2013-11-27 01:52:00,
2013-11-26 18:01:00,36.0,28.0,-100.00,ESE,119,1.0,4.0,73,0.00,,,0.00,4.000000,,2013-11-27 02:01:00,
2013-11-26 18:42:00,35.0,28.0,-100.00,NNW,334,1.0,6.0,76,0.00,,,0.00,0.000000,,2013-11-27 02:42:00,
2013-11-26 18:52:00,35.0,28.0,-100.00,NNW,334,1.0,6.0,76,0.00,,,0.00,0.000000,,2013-11-27 02:52:00,
2013-11-26 19:02:00,35.0,28.0,-100.00,NNW,334,1.0,6.0,76,0.00,,,0.00,0.000000,,2013-11-27 03:02:00,
2013-11-26 19:44:00,33.0,26.0,-100.00,East,95,1.0,6.0,74,0.00,,,0.00,0.000000,,2013-11-27 03:44:00,
2013-11-26 19:53:00,33.0,26.0,-100.00,East,95,1.0,6.0,74,0.00,,,0.00,0.000000,,2013-11-27 03:53:00,
2013-11-26 20:03:00,33.0,26.0,-100.00,East,95,1.0,6.0,74,0.00,,,0.00,0.000000,,2013-11-27 04:03:00,
2013-11-26 20:43:00,33.0,28.0,-100.00,SSW,207,1.0,7.0,83,0.00,,,0.00,0.000000,,2013-11-27 04:43:00,
2013-11-26 20:53:00,33.0,28.0,-100.00,SSW,207,1.0,7.0,83,0.00,,,0.00,0.000000,,2013-11-27 04:53:00,
2013-11-26 21:02:00,33.0,28.0,-100.00,SSW,207,1.0,7.0,83,0.00,,,0.00,0.000000,,2013-11-27 05:02:00,
2013-11-26 21:42:00,33.0,28.0,-100.00,SE,142,1.0,7.0,80,0.00,,,0.00,0.000000,,2013-11-27 05:42:00,
2013-11-26 21:53:00,33.0,28.0,-100.00,SE,142,1.0,7.0,80,0.00,,,0.00,0.000000,,2013-11-27 05:53:00,
2013-11-26 22:01:00,33.0,28.0,-100.00,SE,142,1.0,7.0,80,0.00,,,0.00,0.000000,,2013-11-27 06:01:00,
2013-11-26 22:42:00,34.0,29.0,-100.00,East,98,1.0,5.0,82,0.00,,,0.00,0.000000,,2013-11-27 06:42:00,
2013-11-26 22:52:00,34.0,29.0,-100.00,East,98,1.0,5.0,82,0.00,,,0.00,0.000000,,2013-11-27 06:52:00,
2013-11-26 23:02:00,34.0,29.0,-100.00,East,98,1.0,5.0,82,0.00,,,0.00,0.000000,,2013-11-27 07:02:00,
2013-11-26 23:42:00,36.0,30.0,-100.00,ESE,115,1.0,7.0,79,0.00,,,0.00,0.000000,,2013-11-27 07:42:00,
2013-11-26 23:52:00,36.0,30.0,-100.00,ESE,115,1.0,7.0,79,0.00,,,0.00,0.000000,,2013-11-27 07:52:00,